Time;durP1;ratioP1;P1;durP2;ratioP2;P2;SDS_P1;SDS_P2;PMS_P1;PMS_P2;Temp;Humidity;BMP_temperature;BMP_pressure;BME280_temperature;BME280_humidity;BME280_pressure;Samples;Min_cycle;Max_cycle;Signal;HPM_P1;HPM_P2
2024/05/04 00:00:50;;;;;;;11.68;11.18;;;;;;;;;;5414532;26;20406;-69
2024/05/04 00:03:16;;;;;;;11.50;11.00;;;;;;;;;;5415099;26;20434;-69
2024/05/04 00:05:41;;;;;;;11.68;11.18;;;;;;;;;;5414719;26;19991;-71
2024/05/04 00:08:06;;;;;;;11.52;11.02;;;;;;;;;;5414518;26;19999;-70
2024/05/04 00:10:32;;;;;;;11.93;11.43;;;;;;;;;;5409128;26;20041;-71
2024/05/04 00:12:57;;;;;;;11.70;11.20;;;;;;;;;;5414151;26;20466;-71
2024/05/04 00:15:22;;;;;;;11.75;11.25;;;;;;;;;;5414571;26;20003;-71
2024/05/04 00:17:48;;;;;;;11.88;11.38;;;;;;;;;;5414299;26;20344;-71
2024/05/04 00:20:13;;;;;;;11.60;11.10;;;;;;;;;;5418618;26;20434;-71
2024/05/04 00:22:39;;;;;;;11.68;11.18;;;;;;;;;;5386527;26;19999;-69
2024/05/04 00:25:05;;;;;;;11.57;11.07;;;;;;;;;;5413304;26;20581;-71
2024/05/04 00:27:30;;;;;;;11.82;11.32;;;;;;;;;;5415434;26;20045;-71
2024/05/04 00:29:56;;;;;;;11.65;11.15;;;;;;;;;;5416718;26;20004;-70
2024/05/04 00:32:21;;;;;;;11.88;11.38;;;;;;;;;;5414632;26;20003;-70
2024/05/04 00:34:46;;;;;;;11.80;11.30;;;;;;;;;;5394942;26;20000;-70
2024/05/04 00:37:12;;;;;;;12.00;11.50;;;;;;;;;;5413336;26;20002;-71
2024/05/04 00:39:37;;;;;;;11.65;11.15;;;;;;;;;;5413987;26;19995;-70
2024/05/04 00:42:03;;;;;;;11.50;11.00;;;;;;;;;;5414652;26;20467;-71
2024/05/04 00:44:28;;;;;;;11.77;11.27;;;;;;;;;;5415389;26;20004;-70
2024/05/04 00:46:54;;;;;;;11.93;11.43;;;;;;;;;;5414394;26;20011;-68
2024/05/04 00:49:19;;;;;;;11.43;10.93;;;;;;;;;;5412611;26;20003;-70
2024/05/04 00:51:45;;;;;;;11.65;11.15;;;;;;;;;;5414458;26;20008;-70
2024/05/04 00:54:10;;;;;;;11.45;10.95;;;;;;;;;;5413552;26;19995;-70
2024/05/04 00:56:37;;;;;;;11.60;11.10;;;;;;;;;;5414515;26;20460;-71
2024/05/04 00:59:03;;;;;;;11.75;11.25;;;;;;;;;;5414379;26;20133;-71
2024/05/04 01:01:28;;;;;;;11.85;11.35;;;;;;;;;;5422930;26;20581;-70
2024/05/04 01:03:55;;;;;;;11.90;11.40;;;;;;;;;;5402881;26;20003;-70
2024/05/04 01:06:21;;;;;;;11.52;11.02;;;;;;;;;;5414720;26;20011;-71
2024/05/04 01:08:46;;;;;;;11.63;11.13;;;;;;;;;;5413103;26;20069;-71
2024/05/04 01:11:12;;;;;;;11.45;10.95;;;;;;;;;;5414682;26;20006;-71
2024/05/04 01:13:46;;;;;;;11.68;11.18;;;;;;;;;;5383146;26;20004;-71
2024/05/04 01:16:11;;;;;;;;;;;;;;;;;;5404491;26;20010;-70
2024/05/04 01:18:37;;;;;;;11.67;11.17;;;;;;;;;;5415792;26;19925;-69
2024/05/04 01:21:02;;;;;;;11.50;11.00;;;;;;;;;;5414175;26;20007;-70
2024/05/04 01:23:29;;;;;;;11.23;10.73;;;;;;;;;;5414682;26;20511;-70
2024/05/04 01:25:54;;;;;;;11.35;10.85;;;;;;;;;;5414415;26;20043;-70
2024/05/04 01:28:20;;;;;;;11.40;10.90;;;;;;;;;;5413704;26;20329;-70
2024/05/04 01:30:45;;;;;;;11.48;10.98;;;;;;;;;;5411615;26;20064;-71
2024/05/04 01:33:11;;;;;;;11.50;11.00;;;;;;;;;;5414040;26;20045;-69
2024/05/04 01:35:36;;;;;;;11.15;10.65;;;;;;;;;;5429264;26;20017;-70
2024/05/04 01:38:01;;;;;;;11.50;11.00;;;;;;;;;;5417946;26;20359;-69
2024/05/04 01:40:27;;;;;;;11.55;11.05;;;;;;;;;;5415174;26;20010;-69
2024/05/04 01:42:52;;;;;;;11.80;11.30;;;;;;;;;;5417638;26;19995;-70
2024/05/04 01:45:17;;;;;;;11.32;10.82;;;;;;;;;;5398622;26;19996;-70
2024/05/04 01:47:43;;;;;;;11.63;11.13;;;;;;;;;;5414635;26;20284;-69
2024/05/04 01:50:09;;;;;;;11.40;10.90;;;;;;;;;;5403874;26;20030;-71
2024/05/04 01:52:34;;;;;;;11.20;10.70;;;;;;;;;;5434795;26;20028;-71
2024/05/04 01:55:00;;;;;;;11.40;10.90;;;;;;;;;;5417062;26;19995;-70
2024/05/04 01:57:25;;;;;;;11.52;11.02;;;;;;;;;;5417022;26;20002;-71
2024/05/04 01:59:51;;;;;;;11.60;11.10;;;;;;;;;;5406397;26;20003;-70
2024/05/04 02:02:16;;;;;;;11.50;11.00;;;;;;;;;;5416563;26;20064;-71
2024/05/04 02:04:41;;;;;;;11.40;10.90;;;;;;;;;;5415826;26;20333;-71
2024/05/04 02:07:07;;;;;;;11.48;10.98;;;;;;;;;;5416351;26;20072;-71
2024/05/04 02:09:32;;;;;;;11.40;10.90;;;;;;;;;;5417116;26;19991;-71
2024/05/04 02:11:58;;;;;;;11.75;11.25;;;;;;;;;;5416025;26;19998;-70
2024/05/04 02:14:23;;;;;;;11.48;10.98;;;;;;;;;;5384655;26;19996;-70
2024/05/04 02:16:48;;;;;;;11.38;10.88;;;;;;;;;;5416121;26;19992;-69
2024/05/04 02:19:14;;;;;;;11.40;10.90;;;;;;;;;;5413002;26;20537;-70
2024/05/04 02:21:39;;;;;;;11.27;10.77;;;;;;;;;;5410264;26;20013;-70
2024/05/04 02:24:05;;;;;;;10.85;10.35;;;;;;;;;;5396566;26;20073;-70
2024/05/04 02:26:30;;;;;;;11.48;10.98;;;;;;;;;;5401955;26;20003;-69
2024/05/04 02:28:55;;;;;;;11.60;11.10;;;;;;;;;;5378917;26;20003;-70
2024/05/04 02:31:21;;;;;;;11.50;11.00;;;;;;;;;;5415974;26;20080;-70
2024/05/04 02:33:46;;;;;;;11.63;11.13;;;;;;;;;;5416386;26;20073;-71
2024/05/04 02:36:12;;;;;;;11.35;10.85;;;;;;;;;;5415842;26;20467;-71
2024/05/04 02:38:37;;;;;;;11.32;10.82;;;;;;;;;;5416091;26;20560;-70
2024/05/04 02:41:02;;;;;;;11.40;10.90;;;;;;;;;;5412176;26;20010;-70
2024/05/04 02:43:28;;;;;;;11.32;10.82;;;;;;;;;;5384697;26;20005;-70
2024/05/04 02:45:53;;;;;;;11.32;10.82;;;;;;;;;;5416317;26;20068;-71
2024/05/04 02:48:19;;;;;;;10.95;10.45;;;;;;;;;;5414773;26;20006;-71
2024/05/04 02:50:44;;;;;;;11.40;10.90;;;;;;;;;;5413769;26;20003;-70
2024/05/04 02:53:13;;;;;;;11.10;10.60;;;;;;;;;;5414181;26;20000;-70
2024/05/04 02:55:38;;;;;;;11.20;10.70;;;;;;;;;;5415926;26;20062;-71
2024/05/04 02:58:04;;;;;;;11.20;10.70;;;;;;;;;;5434988;26;19999;-71
2024/05/04 03:00:30;;;;;;;11.43;10.93;;;;;;;;;;5421297;26;20348;-71
2024/05/04 03:02:56;;;;;;;11.32;10.82;;;;;;;;;;5416010;26;20580;-70
2024/05/04 03:05:22;;;;;;;11.23;10.73;;;;;;;;;;5415609;26;20011;-71
2024/05/04 03:07:47;;;;;;;11.45;10.95;;;;;;;;;;5383828;26;20014;-71
2024/05/04 03:10:13;;;;;;;11.32;10.82;;;;;;;;;;5399595;26;19999;-71
2024/05/04 03:12:38;;;;;;;11.32;10.82;;;;;;;;;;5415293;26;20519;-70
2024/05/04 03:15:03;;;;;;;10.80;10.30;;;;;;;;;;5416283;26;20444;-70
2024/05/04 03:17:29;;;;;;;11.07;10.57;;;;;;;;;;5430799;26;20077;-70
2024/05/04 03:19:54;;;;;;;11.52;11.02;;;;;;;;;;5414799;26;20019;-70
2024/05/04 03:22:20;;;;;;;11.45;10.95;;;;;;;;;;5414935;26;20455;-70
2024/05/04 03:24:46;;;;;;;11.45;10.95;;;;;;;;;;5410554;26;20010;-71
2024/05/04 03:27:11;;;;;;;11.50;11.00;;;;;;;;;;5409931;26;19999;-71
2024/05/04 03:29:37;;;;;;;11.27;10.77;;;;;;;;;;5415152;26;20569;-71
2024/05/04 03:32:02;;;;;;;11.07;10.57;;;;;;;;;;5426542;26;19999;-71
2024/05/04 03:34:28;;;;;;;11.43;10.93;;;;;;;;;;5414993;26;20415;-70
2024/05/04 03:36:53;;;;;;;12.00;11.50;;;;;;;;;;5409889;26;20000;-70
2024/05/04 03:39:19;;;;;;;11.77;11.27;;;;;;;;;;5413647;26;20017;-70
2024/05/04 03:41:44;;;;;;;11.68;11.18;;;;;;;;;;5425163;26;20011;-71
2024/05/04 03:44:09;;;;;;;11.77;11.27;;;;;;;;;;5384402;26;20531;-71
2024/05/04 03:46:35;;;;;;;11.80;11.30;;;;;;;;;;5415270;26;19995;-71
2024/05/04 03:49:00;;;;;;;12.07;11.57;;;;;;;;;;5383918;26;20024;-70
2024/05/04 03:51:26;;;;;;;11.75;11.25;;;;;;;;;;5404763;26;20366;-70
2024/05/04 03:53:51;;;;;;;12.18;11.68;;;;;;;;;;5409797;26;20004;-70
2024/05/04 03:56:17;;;;;;;12.38;11.85;;;;;;;;;;5414575;26;19988;-70
2024/05/04 03:58:42;;;;;;;12.27;11.77;;;;;;;;;;5414545;26;20550;-69
2024/05/04 04:01:11;;;;;;;12.30;11.80;;;;;;;;;;5414534;26;20072;-70
2024/05/04 04:03:36;;;;;;;12.38;11.85;;;;;;;;;;5412993;26;20011;-69
2024/05/04 04:06:02;;;;;;;12.55;11.98;;;;;;;;;;5394692;26;20006;-70
2024/05/04 04:08:27;;;;;;;12.38;11.85;;;;;;;;;;5413952;26;19996;-71
2024/05/04 04:10:53;;;;;;;12.60;12.00;;;;;;;;;;5414620;26;19996;-71
2024/05/04 04:13:18;;;;;;;12.30;11.80;;;;;;;;;;5415108;26;20003;-70
2024/05/04 04:15:44;;;;;;;12.50;11.93;;;;;;;;;;5414768;26;20000;-70
2024/05/04 04:18:09;;;;;;;12.73;12.13;;;;;;;;;;5414259;26;20010;-71
2024/05/04 04:20:35;;;;;;;12.57;11.98;;;;;;;;;;5410511;26;20476;-70
2024/05/04 04:23:00;;;;;;;12.52;11.95;;;;;;;;;;5429588;26;19996;-70
2024/05/04 04:25:25;;;;;;;12.68;12.07;;;;;;;;;;5420457;26;20019;-69
2024/05/04 04:27:52;;;;;;;12.65;12.05;;;;;;;;;;5414336;26;20521;-70
2024/05/04 04:30:17;;;;;;;12.27;11.77;;;;;;;;;;5414610;26;20014;-71
2024/05/04 04:32:43;;;;;;;12.80;12.20;;;;;;;;;;5414683;26;20003;-70
2024/05/04 04:35:09;;;;;;;12.40;11.85;;;;;;;;;;5395156;26;20004;-70
2024/05/04 04:37:34;;;;;;;12.38;11.85;;;;;;;;;;5414916;26;20480;-70
2024/05/04 04:40:00;;;;;;;12.65;12.05;;;;;;;;;;5377364;26;20456;-70
2024/05/04 04:42:25;;;;;;;12.80;12.20;;;;;;;;;;5414728;26;20491;-70
2024/05/04 04:44:50;;;;;;;12.65;12.05;;;;;;;;;;5414057;26;20006;-70
2024/05/04 04:47:16;;;;;;;12.95;12.35;;;;;;;;;;5381543;26;19997;-69
2024/05/04 04:49:41;;;;;;;12.57;11.98;;;;;;;;;;5419979;26;19995;-70
2024/05/04 04:52:07;;;;;;;12.27;11.77;;;;;;;;;;5395594;26;20014;-69
2024/05/04 04:54:32;;;;;;;12.77;12.18;;;;;;;;;;5398136;26;19997;-71
2024/05/04 04:56:58;;;;;;;12.80;12.20;;;;;;;;;;5376982;26;20395;-70
2024/05/04 04:59:23;;;;;;;12.57;12.00;;;;;;;;;;5414730;26;19995;-72
2024/05/04 05:01:48;;;;;;;12.40;11.88;;;;;;;;;;5417940;26;20496;-72
2024/05/04 05:04:14;;;;;;;12.57;11.98;;;;;;;;;;5421950;26;20018;-70
2024/05/04 05:06:39;;;;;;;12.63;12.02;;;;;;;;;;5413288;26;20010;-70
2024/05/04 05:09:05;;;;;;;12.65;12.05;;;;;;;;;;5395865;26;20472;-71
2024/05/04 05:11:30;;;;;;;12.60;12.00;;;;;;;;;;5403009;26;20011;-71
2024/05/04 05:13:56;;;;;;;12.55;11.95;;;;;;;;;;5414783;26;20533;-70
2024/05/04 05:16:21;;;;;;;12.73;12.13;;;;;;;;;;5415492;26;20534;-70
2024/05/04 05:18:47;;;;;;;12.80;12.20;;;;;;;;;;5433915;26;19994;-71
2024/05/04 05:21:13;;;;;;;12.70;12.10;;;;;;;;;;5405000;26;20010;-71
2024/05/04 05:23:38;;;;;;;12.30;11.80;;;;;;;;;;5413978;26;20452;-71
2024/05/04 05:26:04;;;;;;;12.90;12.30;;;;;;;;;;5428768;26;20003;-71
2024/05/04 05:28:29;;;;;;;12.93;12.32;;;;;;;;;;5413001;26;20453;-70
2024/05/04 05:30:54;;;;;;;12.65;12.05;;;;;;;;;;5391816;26;20473;-70
2024/05/04 05:33:20;;;;;;;12.65;12.05;;;;;;;;;;5426494;26;20529;-71
2024/05/04 05:35:45;;;;;;;12.57;11.98;;;;;;;;;;5411361;26;20402;-71
2024/05/04 05:38:11;;;;;;;12.23;11.73;;;;;;;;;;5412776;26;20004;-70
2024/05/04 05:40:36;;;;;;;12.73;12.13;;;;;;;;;;5413165;26;20444;-71
2024/05/04 05:43:05;;;;;;;12.60;12.00;;;;;;;;;;5412755;26;20068;-70
2024/05/04 05:45:31;;;;;;;12.60;12.00;;;;;;;;;;5405902;26;20467;-70
2024/05/04 05:47:56;;;;;;;12.88;12.27;;;;;;;;;;5433258;26;20133;-71
2024/05/04 05:50:21;;;;;;;12.57;11.98;;;;;;;;;;5403254;26;20000;-71
2024/05/04 05:52:47;;;;;;;12.70;12.10;;;;;;;;;;5381967;26;19999;-71
2024/05/04 05:55:12;;;;;;;12.90;12.30;;;;;;;;;;5413000;26;20072;-71
2024/05/04 05:57:38;;;;;;;12.85;12.25;;;;;;;;;;5413229;26;20395;-71
2024/05/04 06:00:03;;;;;;;12.70;12.10;;;;;;;;;;5413136;26;19996;-71
2024/05/04 06:02:29;;;;;;;12.65;12.05;;;;;;;;;;5412704;26;20017;-71
2024/05/04 06:04:55;;;;;;;12.48;11.90;;;;;;;;;;5380955;26;20505;-70
2024/05/04 06:07:23;;;;;;;12.45;11.88;;;;;;;;;;5414001;26;20471;-70
2024/05/04 06:09:49;;;;;;;12.73;12.13;;;;;;;;;;5414962;26;20003;-71
2024/05/04 06:12:14;;;;;;;12.50;11.98;;;;;;;;;;5400019;26;20082;-70
2024/05/04 06:14:39;;;;;;;12.40;11.85;;;;;;;;;;5419710;26;20479;-71
2024/05/04 06:17:05;;;;;;;12.45;11.88;;;;;;;;;;5412986;26;20000;-72
2024/05/04 06:19:30;;;;;;;12.60;12.00;;;;;;;;;;5413073;26;20341;-69
2024/05/04 06:21:56;;;;;;;12.65;12.05;;;;;;;;;;5411022;26;20011;-72
2024/05/04 06:24:21;;;;;;;12.93;12.32;;;;;;;;;;5423713;26;20466;-71
2024/05/04 06:26:47;;;;;;;12.85;12.25;;;;;;;;;;5411029;26;20007;-71
2024/05/04 06:29:12;;;;;;;12.57;11.98;;;;;;;;;;5416220;26;20575;-71
2024/05/04 06:31:37;;;;;;;12.45;11.90;;;;;;;;;;5404315;26;20004;-72
2024/05/04 06:34:06;;;;;;;12.70;12.10;;;;;;;;;;5416627;26;19995;-72
2024/05/04 06:36:32;;;;;;;12.75;12.15;;;;;;;;;;5416504;26;20019;-71
2024/05/04 06:38:57;;;;;;;12.70;12.10;;;;;;;;;;5427673;26;20429;-72
2024/05/04 06:41:22;;;;;;;12.95;12.35;;;;;;;;;;5405940;26;20010;-71
2024/05/04 06:43:48;;;;;;;12.88;12.27;;;;;;;;;;5416216;26;20003;-72
2024/05/04 06:46:13;;;;;;;12.75;12.15;;;;;;;;;;5415682;26;20073;-71
2024/05/04 06:48:39;;;;;;;12.98;12.38;;;;;;;;;;5415747;26;20003;-71
2024/05/04 06:51:04;;;;;;;13.00;12.40;;;;;;;;;;5416191;26;20012;-69
2024/05/04 06:53:29;;;;;;;12.77;12.18;;;;;;;;;;5415752;26;20394;-71
2024/05/04 06:55:55;;;;;;;13.00;12.40;;;;;;;;;;5415476;26;20487;-72
2024/05/04 06:58:20;;;;;;;12.88;12.27;;;;;;;;;;5392559;26;20004;-71
2024/05/04 07:00:46;;;;;;;12.73;12.13;;;;;;;;;;5416098;26;20077;-71
2024/05/04 07:03:11;;;;;;;12.95;12.35;;;;;;;;;;5413006;26;19999;-71
2024/05/04 07:05:36;;;;;;;13.05;12.45;;;;;;;;;;5381727;26;20282;-71
2024/05/04 07:08:02;;;;;;;13.20;12.60;;;;;;;;;;5414366;26;20408;-71
2024/05/04 07:10:27;;;;;;;13.05;12.45;;;;;;;;;;5414500;26;20003;-70
2024/05/04 07:12:53;;;;;;;12.95;12.35;;;;;;;;;;5414683;26;20468;-71
2024/05/04 07:15:19;;;;;;;13.02;12.43;;;;;;;;;;5428917;26;20001;-71
2024/05/04 07:17:44;;;;;;;12.95;12.35;;;;;;;;;;5422268;26;20077;-70
2024/05/04 07:20:09;;;;;;;12.77;12.18;;;;;;;;;;5415468;26;20022;-71
2024/05/04 07:22:35;;;;;;;12.70;12.10;;;;;;;;;;5410428;26;20346;-71
2024/05/04 07:25:00;;;;;;;12.63;12.02;;;;;;;;;;5428161;26;20003;-71
2024/05/04 07:27:26;;;;;;;12.70;12.10;;;;;;;;;;5419245;26;20014;-71
2024/05/04 07:29:51;;;;;;;12.80;12.20;;;;;;;;;;5414033;26;20010;-71
2024/05/04 07:32:17;;;;;;;12.65;12.05;;;;;;;;;;5427898;26;19995;-72
2024/05/04 07:34:42;;;;;;;12.60;12.00;;;;;;;;;;5417384;26;19996;-72
2024/05/04 07:37:07;;;;;;;12.65;12.05;;;;;;;;;;5397748;26;19996;-71
2024/05/04 07:39:33;;;;;;;12.70;12.10;;;;;;;;;;5412292;26;20002;-71
2024/05/04 07:41:59;;;;;;;12.40;11.88;;;;;;;;;;5391356;26;20012;-72
2024/05/04 07:44:24;;;;;;;12.90;12.30;;;;;;;;;;5381240;26;20007;-70
2024/05/04 07:46:53;;;;;;;12.38;11.82;;;;;;;;;;5414907;26;20000;-71
2024/05/04 07:49:18;;;;;;;12.60;12.00;;;;;;;;;;5417205;26;20004;-70
2024/05/04 07:51:44;;;;;;;12.73;12.13;;;;;;;;;;5412812;26;20040;-70
2024/05/04 07:54:09;;;;;;;12.82;12.23;;;;;;;;;;5383358;26;20000;-71
2024/05/04 07:56:34;;;;;;;12.77;12.18;;;;;;;;;;5414251;26;20050;-70
2024/05/04 07:59:00;;;;;;;12.68;12.07;;;;;;;;;;5414879;26;19995;-71
2024/05/04 08:01:25;;;;;;;12.68;12.07;;;;;;;;;;5429379;26;20075;-70
2024/05/04 08:03:51;;;;;;;12.90;12.30;;;;;;;;;;5384494;26;20010;-71
2024/05/04 08:06:17;;;;;;;12.38;11.88;;;;;;;;;;5411548;26;20490;-69
2024/05/04 08:08:42;;;;;;;12.77;12.18;;;;;;;;;;5437067;26;19996;-71
2024/05/04 08:11:08;;;;;;;12.32;11.82;;;;;;;;;;5415135;26;20463;-70
2024/05/04 08:13:33;;;;;;;12.35;11.82;;;;;;;;;;5382534;26;20018;-70
2024/05/04 08:15:58;;;;;;;12.18;11.68;;;;;;;;;;5414665;26;19996;-70
2024/05/04 08:18:24;;;;;;;12.70;12.10;;;;;;;;;;5414366;26;20014;-70
2024/05/04 08:20:49;;;;;;;12.38;11.85;;;;;;;;;;5414392;26;20003;-70
2024/05/04 08:23:15;;;;;;;12.60;12.00;;;;;;;;;;5420431;26;20011;-70
2024/05/04 08:25:40;;;;;;;12.27;11.77;;;;;;;;;;5423639;26;20472;-70
2024/05/04 08:28:06;;;;;;;12.18;11.68;;;;;;;;;;5413725;26;20045;-70
2024/05/04 08:30:34;;;;;;;12.30;11.80;;;;;;;;;;5382073;26;20011;-70
2024/05/04 08:32:59;;;;;;;12.00;11.50;;;;;;;;;;5411557;26;20011;-70
2024/05/04 08:35:25;;;;;;;12.35;11.82;;;;;;;;;;5398195;26;20007;-70
2024/05/04 08:37:50;;;;;;;12.60;12.00;;;;;;;;;;5408989;26;20015;-71
2024/05/04 08:40:16;;;;;;;12.23;11.73;;;;;;;;;;5422326;26;20010;-70
2024/05/04 08:42:42;;;;;;;12.35;11.82;;;;;;;;;;5410456;26;20468;-70
2024/05/04 08:45:07;;;;;;;12.23;11.73;;;;;;;;;;5414496;26;20460;-71
2024/05/04 08:47:33;;;;;;;12.35;11.85;;;;;;;;;;5406406;26;20359;-70
2024/05/04 08:49:59;;;;;;;11.90;11.40;;;;;;;;;;5412362;26;20502;-69
2024/05/04 08:52:24;;;;;;;12.30;11.80;;;;;;;;;;5393315;26;20081;-70
2024/05/04 08:54:50;;;;;;;12.23;11.73;;;;;;;;;;5404746;26;20513;-70
2024/05/04 08:57:15;;;;;;;12.32;11.82;;;;;;;;;;5403520;26;20015;-71
2024/05/04 08:59:45;;;;;;;11.95;11.45;;;;;;;;;;5413382;26;19999;-70
2024/05/04 09:02:10;;;;;;;12.10;11.60;;;;;;;;;;5369924;26;20401;-70
2024/05/04 09:04:37;;;;;;;12.00;11.50;;;;;;;;;;5413654;26;20024;-70
2024/05/04 09:07:04;;;;;;;12.30;11.80;;;;;;;;;;5413453;26;20003;-70
2024/05/04 09:09:30;;;;;;;12.20;11.70;;;;;;;;;;5397523;26;20000;-70
2024/05/04 09:11:56;;;;;;;11.90;11.40;;;;;;;;;;5382673;26;20013;-71
2024/05/04 09:14:21;;;;;;;12.13;11.63;;;;;;;;;;5414548;26;20014;-71
2024/05/04 09:16:47;;;;;;;11.98;11.48;;;;;;;;;;5395681;26;19999;-70
2024/05/04 09:19:12;;;;;;;11.95;11.45;;;;;;;;;;5404531;26;20453;-71
2024/05/04 09:21:38;;;;;;;11.85;11.35;;;;;;;;;;5387908;26;20007;-70
2024/05/04 09:24:03;;;;;;;11.90;11.40;;;;;;;;;;5413865;26;19999;-70
2024/05/04 09:26:28;;;;;;;12.13;11.63;;;;;;;;;;5413274;26;19999;-70
2024/05/04 09:28:55;;;;;;;12.00;11.50;;;;;;;;;;5382941;26;19996;-70
2024/05/04 09:31:23;;;;;;;12.15;11.65;;;;;;;;;;5413119;26;20076;-70
2024/05/04 09:33:52;;;;;;;12.10;11.60;;;;;;;;;;5414014;26;19995;-71
2024/05/04 09:36:19;;;;;;;12.00;11.50;;;;;;;;;;5413780;26;20010;-69
2024/05/04 09:38:56;;;;;;;11.90;11.40;;;;;;;;;;5413636;26;20014;-71
2024/05/04 09:41:23;;;;;;;12.20;11.70;;;;;;;;;;5402575;26;20031;-70
2024/05/04 09:43:49;;;;;;;11.93;11.43;;;;;;;;;;5413044;26;20011;-70
2024/05/04 09:46:15;;;;;;;11.98;11.48;;;;;;;;;;5406170;26;20014;-70
2024/05/04 09:48:42;;;;;;;11.93;11.43;;;;;;;;;;5405144;26;20413;-71
2024/05/04 09:51:08;;;;;;;11.95;11.45;;;;;;;;;;5412922;26;20013;-71
2024/05/04 09:53:35;;;;;;;11.95;11.45;;;;;;;;;;5421112;26;20456;-70
2024/05/04 09:56:02;;;;;;;11.80;11.30;;;;;;;;;;5413023;26;20054;-70
2024/05/04 09:58:28;;;;;;;12.10;11.60;;;;;;;;;;5383303;26;20003;-71
2024/05/04 10:00:55;;;;;;;12.00;11.50;;;;;;;;;;5404219;26;20014;-72
2024/05/04 10:03:21;;;;;;;11.82;11.32;;;;;;;;;;5416203;26;20003;-71
2024/05/04 10:05:47;;;;;;;11.52;11.02;;;;;;;;;;5417440;26;20076;-70
2024/05/04 10:08:13;;;;;;;11.85;11.35;;;;;;;;;;5416270;26;20035;-71
2024/05/04 10:10:38;;;;;;;11.95;11.45;;;;;;;;;;5385252;26;20000;-70
2024/05/04 10:13:11;;;;;;;11.95;11.45;;;;;;;;;;5383052;26;20436;-71
2024/05/04 10:15:39;;;;;;;11.93;11.43;;;;;;;;;;5401962;26;20460;-70
2024/05/04 10:18:05;;;;;;;11.80;11.30;;;;;;;;;;5414088;26;20239;-70
2024/05/04 10:20:30;;;;;;;12.02;11.52;;;;;;;;;;5416379;26;20018;-71
2024/05/04 10:22:59;;;;;;;11.93;11.43;;;;;;;;;;5416631;26;19995;-71
2024/05/04 10:25:25;;;;;;;12.20;11.70;;;;;;;;;;5384215;26;20254;-71
2024/05/04 10:27:50;;;;;;;11.80;11.30;;;;;;;;;;5415014;26;20011;-71
2024/05/04 10:30:19;;;;;;;11.90;11.40;;;;;;;;;;5438070;26;20076;-71
2024/05/04 10:32:44;;;;;;;12.02;11.52;;;;;;;;;;5396046;26;20003;-71
2024/05/04 10:35:10;;;;;;;11.55;11.05;;;;;;;;;;5416507;26;19995;-71
2024/05/04 10:37:35;;;;;;;11.82;11.32;;;;;;;;;;5384244;26;19999;-71
2024/05/04 10:40:01;;;;;;;11.90;11.40;;;;;;;;;;5416729;26;19992;-71
2024/05/04 10:42:26;;;;;;;12.10;11.60;;;;;;;;;;5403265;26;20069;-70
2024/05/04 10:44:51;;;;;;;12.13;11.63;;;;;;;;;;5415714;26;20494;-71
2024/05/04 10:47:17;;;;;;;12.00;11.50;;;;;;;;;;5415693;26;19995;-71
2024/05/04 10:49:42;;;;;;;12.05;11.55;;;;;;;;;;5425446;26;20401;-72
2024/05/04 10:52:08;;;;;;;11.98;11.48;;;;;;;;;;5421519;26;20014;-72
2024/05/04 10:54:33;;;;;;;11.98;11.48;;;;;;;;;;5404787;26;20004;-70
2024/05/04 10:56:59;;;;;;;11.80;11.30;;;;;;;;;;5366860;26;20000;-70
2024/05/04 10:59:34;;;;;;;12.00;11.50;;;;;;;;;;5401605;26;20487;-71
2024/05/04 11:02:00;;;;;;;11.98;11.48;;;;;;;;;;5415567;26;20003;-72
2024/05/04 11:04:25;;;;;;;12.00;11.50;;;;;;;;;;5415376;26;20484;-71
2024/05/04 11:06:54;;;;;;;11.90;11.40;;;;;;;;;;5415666;26;20006;-72
2024/05/04 11:09:20;;;;;;;12.02;11.52;;;;;;;;;;5384739;26;20015;-72
2024/05/04 11:11:47;;;;;;;11.65;11.15;;;;;;;;;;5408885;26;20028;-74
2024/05/04 11:14:12;;;;;;;11.63;11.13;;;;;;;;;;5380930;26;20011;-72
2024/05/04 11:16:39;;;;;;;11.48;10.98;;;;;;;;;;5415324;26;20003;-71
2024/05/04 11:19:04;;;;;;;11.68;11.18;;;;;;;;;;5434072;26;20041;-71
2024/05/04 11:21:37;;;;;;;11.63;11.13;;;;;;;;;;5393401;26;20004;-70
2024/05/04 11:24:03;;;;;;;11.68;11.18;;;;;;;;;;5415414;26;20381;-71
2024/05/04 11:26:28;;;;;;;11.93;11.43;;;;;;;;;;5425647;26;20000;-70
2024/05/04 11:28:53;;;;;;;11.70;11.20;;;;;;;;;;5418782;26;20049;-71
2024/05/04 11:31:21;;;;;;;11.88;11.38;;;;;;;;;;5416910;26;19996;-70
2024/05/04 11:33:46;;;;;;;12.10;11.60;;;;;;;;;;5414998;26;19995;-71
2024/05/04 11:36:12;;;;;;;11.77;11.27;;;;;;;;;;5382940;26;19995;-72
2024/05/04 11:38:37;;;;;;;11.90;11.40;;;;;;;;;;5418063;26;20448;-71
2024/05/04 11:41:03;;;;;;;11.70;11.20;;;;;;;;;;5408781;26;20005;-72
2024/05/04 11:43:28;;;;;;;11.90;11.40;;;;;;;;;;5414460;26;20010;-72
2024/05/04 11:45:54;;;;;;;11.88;11.38;;;;;;;;;;5414501;26;20076;-71
2024/05/04 11:48:20;;;;;;;12.82;12.23;;;;;;;;;;5424676;26;19995;-71
2024/05/04 11:50:45;;;;;;;12.30;11.80;;;;;;;;;;5414042;26;20006;-69
2024/05/04 11:53:13;;;;;;;12.43;11.85;;;;;;;;;;5382033;26;20011;-70
2024/05/04 11:55:38;;;;;;;11.75;11.25;;;;;;;;;;5414001;26;20007;-71
2024/05/04 11:58:04;;;;;;;11.98;11.48;;;;;;;;;;5414962;26;19999;-70
2024/05/04 12:00:29;;;;;;;11.73;11.23;;;;;;;;;;5415054;26;20005;-70
2024/05/04 12:02:55;;;;;;;11.70;11.20;;;;;;;;;;5414450;26;19995;-70
2024/05/04 12:05:21;;;;;;;12.00;11.50;;;;;;;;;;5415783;26;20011;-70
2024/05/04 12:07:46;;;;;;;11.85;11.35;;;;;;;;;;5413842;26;20012;-70
2024/05/04 12:10:11;;;;;;;11.65;11.15;;;;;;;;;;5414740;26;20067;-70
2024/05/04 12:12:37;;;;;;;11.68;11.18;;;;;;;;;;5414077;26;20676;-70
2024/05/04 12:15:02;;;;;;;11.57;11.07;;;;;;;;;;5383208;26;19995;-70
2024/05/04 12:17:29;;;;;;;12.00;11.50;;;;;;;;;;5383071;26;20009;-71
2024/05/04 12:19:55;;;;;;;11.82;11.32;;;;;;;;;;5409328;26;20006;-71
2024/05/04 12:22:21;;;;;;;11.98;11.48;;;;;;;;;;5392695;26;19999;-70
2024/05/04 12:24:46;;;;;;;11.77;11.27;;;;;;;;;;5420151;26;19995;-71
2024/05/04 12:27:12;;;;;;;11.85;11.35;;;;;;;;;;5414003;26;20053;-70
2024/05/04 12:29:37;;;;;;;12.00;11.50;;;;;;;;;;5385952;26;20401;-71
2024/05/04 12:32:02;;;;;;;11.82;11.32;;;;;;;;;;5414080;26;20484;-70
2024/05/04 12:34:28;;;;;;;12.13;11.63;;;;;;;;;;5414291;26;20006;-71
2024/05/04 12:36:53;;;;;;;12.13;11.63;;;;;;;;;;5385730;26;20018;-71
2024/05/04 12:39:19;;;;;;;11.95;11.45;;;;;;;;;;5437000;26;20006;-70
2024/05/04 12:41:44;;;;;;;11.80;11.30;;;;;;;;;;5414098;26;20071;-72
2024/05/04 12:44:09;;;;;;;11.88;11.38;;;;;;;;;;5414061;26;19995;-71
2024/05/04 12:46:35;;;;;;;11.85;11.35;;;;;;;;;;5382659;26;19999;-70
2024/05/04 12:49:00;;;;;;;11.90;11.40;;;;;;;;;;5413809;26;20006;-70
2024/05/04 12:51:26;;;;;;;11.73;11.23;;;;;;;;;;5413927;26;19999;-70
2024/05/04 12:53:51;;;;;;;12.10;11.60;;;;;;;;;;5383018;26;20076;-70
2024/05/04 12:56:19;;;;;;;12.18;11.68;;;;;;;;;;5422066;26;20007;-70
2024/05/04 12:58:44;;;;;;;12.00;11.50;;;;;;;;;;5414231;26;20003;-70
2024/05/04 13:01:10;;;;;;;11.80;11.30;;;;;;;;;;5413676;26;20015;-70
2024/05/04 13:03:35;;;;;;;11.77;11.27;;;;;;;;;;5422893;26;20014;-71
2024/05/04 13:06:01;;;;;;;11.98;11.48;;;;;;;;;;5428740;26;20003;-71
2024/05/04 13:08:26;;;;;;;11.95;11.45;;;;;;;;;;5380386;26;20021;-69
2024/05/04 13:10:52;;;;;;;12.00;11.50;;;;;;;;;;5403446;26;19995;-71
2024/05/04 13:13:17;;;;;;;11.90;11.40;;;;;;;;;;5413760;26;20003;-71
2024/05/04 13:15:43;;;;;;;11.82;11.32;;;;;;;;;;5413895;26;20015;-70
2024/05/04 13:18:09;;;;;;;12.00;11.50;;;;;;;;;;5406087;26;19995;-70
2024/05/04 13:20:34;;;;;;;12.10;11.60;;;;;;;;;;5429411;26;20240;-70
2024/05/04 13:23:00;;;;;;;11.90;11.40;;;;;;;;;;5382913;26;20469;-70
2024/05/04 13:25:25;;;;;;;11.95;11.45;;;;;;;;;;5400714;26;20003;-70
2024/05/04 13:27:51;;;;;;;12.13;11.63;;;;;;;;;;5390225;26;20325;-71
2024/05/04 13:30:16;;;;;;;11.88;11.38;;;;;;;;;;5426375;26;20004;-71
2024/05/04 13:32:42;;;;;;;12.02;11.52;;;;;;;;;;5412531;26;20015;-71
2024/05/04 13:35:07;;;;;;;11.60;11.10;;;;;;;;;;5414762;26;19995;-71
2024/05/04 13:37:33;;;;;;;11.60;11.10;;;;;;;;;;5410392;26;19999;-71
2024/05/04 13:39:58;;;;;;;11.70;11.20;;;;;;;;;;5414226;26;19996;-72
2024/05/04 13:42:24;;;;;;;11.70;11.20;;;;;;;;;;5412760;26;20000;-72
2024/05/04 13:44:49;;;;;;;11.82;11.32;;;;;;;;;;5413008;26;20791;-70
2024/05/04 13:47:15;;;;;;;11.77;11.27;;;;;;;;;;5416632;26;20360;-70
2024/05/04 13:49:40;;;;;;;11.95;11.45;;;;;;;;;;5411500;26;20012;-71
2024/05/04 13:52:06;;;;;;;11.80;11.30;;;;;;;;;;5375016;26;20520;-70
2024/05/04 13:54:31;;;;;;;11.90;11.40;;;;;;;;;;5386531;26;20004;-71
2024/05/04 13:56:56;;;;;;;11.75;11.25;;;;;;;;;;5388949;26;19999;-71
2024/05/04 13:59:22;;;;;;;12.00;11.50;;;;;;;;;;5415051;26;20000;-71
2024/05/04 14:01:50;;;;;;;11.77;11.27;;;;;;;;;;5418762;26;20493;-70
2024/05/04 14:04:16;;;;;;;11.60;11.10;;;;;;;;;;5415687;26;20010;-69
2024/05/04 14:06:42;;;;;;;11.98;11.48;;;;;;;;;;5398834;26;20003;-71
2024/05/04 14:09:07;;;;;;;11.88;11.38;;;;;;;;;;5413192;26;20019;-71